createdAt,value
2022-10-04T00:01:31.141Z,90.60
2022-10-04T00:04:24.595Z,90.60
2022-10-04T00:07:03.259Z,90.70
2022-10-04T00:10:16.209Z,90.70
2022-10-04T00:12:57.112Z,90.70
2022-10-04T00:15:32.141Z,90.60
2022-10-04T00:18:26.088Z,90.70
2022-10-04T00:20:55.664Z,90.70
2022-10-04T00:23:25.509Z,90.50
2022-10-04T00:25:54.172Z,90.60
2022-10-04T00:28:21.049Z,90.60
2022-10-04T00:31:17.161Z,90.60
2022-10-04T00:33:52.061Z,90.80
2022-10-04T00:36:25.213Z,91.00
2022-10-04T00:39:04.597Z,90.80
2022-10-04T00:41:49.899Z,90.80
2022-10-04T00:44:41.506Z,90.80
2022-10-04T00:47:52.885Z,90.80
2022-10-04T00:50:33.404Z,90.80
2022-10-04T00:53:00.612Z,90.70
2022-10-04T00:55:37.472Z,90.70
2022-10-04T00:58:05.467Z,90.70
2022-10-04T01:00:33.656Z,90.70
2022-10-04T01:03:10.702Z,90.70
2022-10-04T01:05:42.474Z,90.80
2022-10-04T01:08:18.062Z,90.80
2022-10-04T01:10:49.140Z,90.80
2022-10-04T01:13:19.653Z,90.80
2022-10-04T01:16:10.468Z,90.80
2022-10-04T01:18:37.638Z,90.90
2022-10-04T01:21:20.540Z,90.80
2022-10-04T01:23:51.178Z,90.90
2022-10-04T01:26:30.774Z,90.80
2022-10-04T01:28:59.012Z,90.90
2022-10-04T01:31:27.008Z,90.90
2022-10-04T01:33:57.067Z,90.90
2022-10-04T01:36:23.996Z,90.90
2022-10-04T01:38:51.082Z,90.90
2022-10-04T01:41:21.187Z,90.90
2022-10-04T01:43:50.509Z,91.00
2022-10-04T01:46:32.347Z,91.00
2022-10-04T01:49:01.091Z,91.00
2022-10-04T01:51:33.689Z,91.00
2022-10-04T01:54:04.177Z,91.00
2022-10-04T01:56:53.049Z,90.90
2022-10-04T01:59:29.033Z,91.00
2022-10-04T02:02:01.985Z,91.00
2022-10-04T02:04:38.570Z,91.00
2022-10-04T02:07:14.199Z,91.00
2022-10-04T02:09:43.753Z,91.00
2022-10-04T02:12:17.356Z,91.00
2022-10-04T02:14:52.688Z,91.00
2022-10-04T02:17:25.278Z,91.00
2022-10-04T02:19:52.306Z,90.90
2022-10-04T02:22:19.146Z,90.90
2022-10-04T02:24:47.615Z,91.00
2022-10-04T02:27:14.641Z,91.20
2022-10-04T02:29:41.557Z,91.00
2022-10-04T02:32:27.476Z,91.00
2022-10-04T02:34:55.067Z,91.00
2022-10-04T02:37:28.539Z,91.10
2022-10-04T02:40:16.537Z,91.10
2022-10-04T02:43:25.075Z,91.10
2022-10-04T02:46:14.867Z,91.10
2022-10-04T02:48:48.717Z,91.10
2022-10-04T02:51:15.648Z,91.10
2022-10-04T02:53:49.280Z,91.10
2022-10-04T02:56:16.838Z,91.20
2022-10-04T02:58:43.779Z,91.20
2022-10-04T03:01:27.944Z,91.20
2022-10-04T03:03:56.798Z,91.30
2022-10-04T03:06:24.607Z,91.30
2022-10-04T03:08:58.220Z,91.30
2022-10-04T03:11:25.230Z,91.40
2022-10-04T03:13:54.349Z,91.30
2022-10-04T03:16:23.154Z,91.20
2022-10-04T03:18:50.011Z,91.30
2022-10-04T03:21:17.887Z,91.30
2022-10-04T03:23:44.845Z,91.40
2022-10-04T03:26:27.098Z,91.50
2022-10-04T03:28:53.929Z,91.60
2022-10-04T03:31:20.829Z,91.60
2022-10-04T03:33:50.718Z,91.60
2022-10-04T03:36:18.622Z,91.70
2022-10-04T03:38:47.621Z,91.70
2022-10-04T03:41:14.638Z,91.70
2022-10-04T03:43:44.892Z,91.70
2022-10-04T03:46:14.583Z,91.70
2022-10-04T03:48:50.186Z,91.70
2022-10-04T03:51:19.566Z,91.70
2022-10-04T03:53:57.471Z,91.70
2022-10-04T03:56:32.020Z,91.70
2022-10-04T03:58:59.141Z,91.80
2022-10-04T04:01:38.678Z,91.70
2022-10-04T04:04:15.433Z,92.00
2022-10-04T04:06:51.797Z,91.70
2022-10-04T04:09:52.859Z,91.70
2022-10-04T04:12:25.997Z,91.80
2022-10-04T04:14:52.877Z,91.70
2022-10-04T04:17:26.051Z,91.70
2022-10-04T04:20:00.459Z,91.70
2022-10-04T04:22:31.422Z,91.70
2022-10-04T04:25:01.657Z,91.60
2022-10-04T04:27:30.010Z,91.70
2022-10-04T04:29:58.304Z,91.70
2022-10-04T04:32:40.237Z,91.70
2022-10-04T04:35:08.439Z,91.70
2022-10-04T04:37:35.989Z,91.70
2022-10-04T04:40:32.745Z,91.70
2022-10-04T04:43:00.161Z,91.70
2022-10-04T04:45:30.022Z,91.60
2022-10-04T04:48:01.293Z,91.70
2022-10-04T04:50:36.240Z,91.70
2022-10-04T04:53:23.641Z,91.70
2022-10-04T04:56:03.834Z,91.70
2022-10-04T04:58:37.035Z,91.70
2022-10-04T05:01:23.482Z,91.70
2022-10-04T05:04:02.922Z,91.60
2022-10-04T05:06:30.664Z,91.60
2022-10-04T05:08:57.610Z,91.60
2022-10-04T05:11:27.208Z,91.60
2022-10-04T05:13:57.027Z,91.60
2022-10-04T05:16:28.122Z,91.60
2022-10-04T05:18:57.578Z,91.60
2022-10-04T05:21:29.656Z,91.50
2022-10-04T05:23:57.530Z,91.50
2022-10-04T05:26:29.516Z,91.50
2022-10-04T05:29:01.280Z,91.40
2022-10-04T05:31:45.711Z,91.40
2022-10-04T05:34:27.081Z,91.30
2022-10-04T05:37:23.668Z,91.30
2022-10-04T05:40:13.534Z,91.20
2022-10-04T05:42:45.490Z,91.20
2022-10-04T05:45:14.702Z,91.20
2022-10-04T05:47:41.899Z,91.10
2022-10-04T05:50:23.659Z,90.90
2022-10-04T05:52:51.391Z,90.60
2022-10-04T05:55:39.276Z,90.30
2022-10-04T05:58:18.442Z,90.20
2022-10-04T06:01:26.806Z,90.10
2022-10-04T06:04:16.554Z,90.10
2022-10-04T06:06:59.456Z,90.10
2022-10-04T06:09:50.808Z,90.10
2022-10-04T06:12:44.811Z,90.10
2022-10-04T06:15:31.625Z,90.20
2022-10-04T06:18:28.539Z,90.20
2022-10-04T06:21:17.170Z,90.10
2022-10-04T06:24:14.443Z,90.10
2022-10-04T06:26:51.325Z,90.00
2022-10-04T06:29:20.642Z,90.00
2022-10-04T06:32:27.135Z,90.10
2022-10-04T06:35:13.515Z,90.10
2022-10-04T06:37:43.225Z,90.10
2022-10-04T06:40:41.573Z,90.10
2022-10-04T06:43:35.855Z,90.20
2022-10-04T06:46:30.358Z,90.20
2022-10-04T06:49:20.533Z,90.20
2022-10-04T06:52:32.244Z,90.10
2022-10-04T06:55:19.435Z,90.00
2022-10-04T06:58:09.537Z,90.00
2022-10-04T07:00:57.107Z,89.90
2022-10-04T07:03:27.701Z,89.70
2022-10-04T07:06:04.932Z,89.40
2022-10-04T07:08:36.933Z,89.10
2022-10-04T07:11:18.809Z,88.80
2022-10-04T07:13:51.474Z,88.50
2022-10-04T07:16:26.219Z,88.30
2022-10-04T07:19:09.575Z,88.30
2022-10-04T07:21:45.399Z,88.20
2022-10-04T07:24:18.040Z,88.10
2022-10-04T07:26:50.879Z,88.10
2022-10-04T07:29:22.451Z,88.10
2022-10-04T07:32:12.104Z,88.10
2022-10-04T07:34:45.759Z,88.20
2022-10-04T07:37:13.490Z,88.20
2022-10-04T07:39:48.114Z,88.60
2022-10-04T07:42:20.954Z,88.00
2022-10-04T07:44:55.017Z,88.00
2022-10-04T07:47:24.385Z,87.90
2022-10-04T07:49:53.541Z,87.70
2022-10-04T07:52:44.605Z,87.70
2022-10-04T07:55:37.794Z,87.50
2022-10-04T07:58:23.440Z,87.30
2022-10-04T08:00:56.434Z,87.20
2022-10-04T08:03:59.723Z,87.00
2022-10-04T08:06:36.253Z,86.80
2022-10-04T08:09:18.318Z,86.70
2022-10-04T08:12:01.965Z,86.60
2022-10-04T08:14:40.266Z,86.60
2022-10-04T08:17:15.579Z,86.50
2022-10-04T08:20:24.644Z,86.40
2022-10-04T08:23:29.130Z,86.10
2022-10-04T08:26:32.980Z,86.00
2022-10-04T08:29:43.004Z,85.60
2022-10-04T08:32:47.320Z,85.50
2022-10-04T08:35:33.825Z,85.40
2022-10-04T08:38:21.175Z,85.30
2022-10-04T08:41:25.655Z,85.10
2022-10-04T08:44:14.394Z,84.90
2022-10-04T08:47:22.238Z,84.60
2022-10-04T08:50:24.643Z,84.10
2022-10-04T08:53:17.022Z,84.00
2022-10-04T08:56:10.933Z,83.60
2022-10-04T08:59:00.398Z,83.40
2022-10-04T09:01:58.265Z,83.40
2022-10-04T09:04:44.000Z,83.30
2022-10-04T09:07:29.402Z,83.00
2022-10-04T09:10:24.212Z,83.20
2022-10-04T09:13:03.555Z,83.20
2022-10-04T09:15:43.124Z,82.90
2022-10-04T09:18:13.083Z,82.30
2022-10-04T09:21:14.135Z,81.90
2022-10-04T09:23:57.616Z,81.50
2022-10-04T09:26:39.715Z,81.40
2022-10-04T09:29:34.030Z,81.20
2022-10-04T09:32:16.561Z,80.50
2022-10-04T09:35:12.282Z,80.20
2022-10-04T09:37:48.188Z,79.90
2022-10-04T09:40:50.272Z,79.40
2022-10-04T09:43:43.845Z,78.40
2022-10-04T09:46:50.344Z,77.80
2022-10-04T09:49:37.994Z,77.30
2022-10-04T09:52:20.160Z,77.30
2022-10-04T09:55:08.815Z,77.30
2022-10-04T09:58:01.779Z,77.50
2022-10-04T10:00:35.975Z,77.50
2022-10-04T10:03:41.888Z,77.80
2022-10-04T10:06:27.342Z,78.10
2022-10-04T10:09:18.647Z,78.40
2022-10-04T10:12:23.255Z,78.30
2022-10-04T10:15:18.515Z,78.30
2022-10-04T10:18:11.598Z,78.70
2022-10-04T10:20:50.873Z,78.90
2022-10-04T10:23:20.593Z,79.00
2022-10-04T10:26:23.932Z,79.50
2022-10-04T10:29:16.817Z,78.80
2022-10-04T10:32:10.869Z,78.80
2022-10-04T10:34:56.882Z,78.60
2022-10-04T10:37:39.791Z,78.80
2022-10-04T10:40:28.010Z,78.50
2022-10-04T10:42:59.535Z,78.40
2022-10-04T10:45:50.514Z,78.40
2022-10-04T10:48:48.411Z,78.40
2022-10-04T10:51:55.956Z,77.90
2022-10-04T10:54:40.695Z,77.30
2022-10-04T10:57:15.100Z,76.70
2022-10-04T11:00:21.150Z,76.40
2022-10-04T11:03:13.131Z,76.20
2022-10-04T11:06:02.618Z,76.00
2022-10-04T11:09:00.511Z,75.70
2022-10-04T11:11:43.879Z,75.60
2022-10-04T11:14:49.690Z,75.80
2022-10-04T11:17:54.192Z,76.10
2022-10-04T11:20:52.101Z,76.10
2022-10-04T11:23:40.849Z,76.30
2022-10-04T11:26:25.152Z,76.60
2022-10-04T11:29:10.200Z,76.90
2022-10-04T11:32:02.137Z,77.00
2022-10-04T11:35:06.222Z,77.20
2022-10-04T11:37:33.012Z,77.60
2022-10-04T11:40:12.597Z,77.60
2022-10-04T11:42:49.367Z,77.50
2022-10-04T11:45:34.018Z,77.40
2022-10-04T11:48:32.927Z,77.20
2022-10-04T11:51:18.707Z,76.90
2022-10-04T11:54:13.435Z,76.70
2022-10-04T11:56:56.565Z,76.40
2022-10-04T11:59:36.111Z,76.10
2022-10-04T12:02:40.808Z,76.10
2022-10-04T12:05:46.682Z,76.00
2022-10-04T12:08:30.051Z,75.90
2022-10-04T12:11:02.415Z,75.80
2022-10-04T12:13:50.605Z,76.10
2022-10-04T12:17:08.500Z,76.10
2022-10-04T12:19:59.517Z,76.20
2022-10-04T12:23:20.143Z,76.60
2022-10-04T12:26:19.227Z,77.00
2022-10-04T12:29:04.478Z,77.30
2022-10-04T12:31:41.396Z,77.60
2022-10-04T12:34:13.390Z,77.60
2022-10-04T12:37:01.397Z,77.70
2022-10-04T12:39:40.115Z,77.90
2022-10-04T12:42:28.102Z,78.00
2022-10-04T12:45:27.910Z,78.10
2022-10-04T12:48:24.508Z,78.40
2022-10-04T12:51:25.027Z,78.40
2022-10-04T12:54:13.245Z,78.60
2022-10-04T12:56:47.755Z,78.80
2022-10-04T12:59:28.905Z,79.00
2022-10-04T13:02:21.202Z,79.00
2022-10-04T13:04:50.335Z,79.00
2022-10-04T13:07:51.767Z,78.90
2022-10-04T13:10:30.537Z,79.00
2022-10-04T13:13:36.099Z,78.90
2022-10-04T13:19:22.387Z,79.10
2022-10-04T13:22:01.328Z,79.20
2022-10-04T13:25:09.654Z,79.50
2022-10-04T13:27:55.006Z,79.70
2022-10-04T13:30:42.794Z,79.80
2022-10-04T13:33:26.534Z,79.80
2022-10-04T13:35:54.322Z,79.90
2022-10-04T13:38:34.065Z,79.80
2022-10-04T13:41:06.955Z,79.90
2022-10-04T13:43:42.568Z,80.00
2022-10-04T13:46:15.206Z,80.00
2022-10-04T13:48:58.194Z,80.10
2022-10-04T13:51:39.317Z,80.40
2022-10-04T13:55:09.791Z,80.60
2022-10-04T13:57:46.634Z,81.10
2022-10-04T14:00:19.719Z,81.20
2022-10-04T14:02:57.666Z,81.10
2022-10-04T14:05:24.523Z,80.70
2022-10-04T14:08:13.100Z,80.30
2022-10-04T14:10:54.702Z,80.20
2022-10-04T14:13:43.174Z,80.10
2022-10-04T14:16:25.766Z,80.10
2022-10-04T14:19:14.195Z,80.30
2022-10-04T14:22:06.238Z,80.60
2022-10-04T14:24:46.700Z,81.00
2022-10-04T14:27:20.586Z,81.20
2022-10-04T14:29:53.333Z,81.50
2022-10-04T14:32:47.529Z,81.70
2022-10-04T14:35:40.460Z,81.90
2022-10-04T14:38:24.488Z,81.90
2022-10-04T14:41:19.852Z,82.00
2022-10-04T14:44:18.662Z,82.20
2022-10-04T14:47:16.226Z,82.40
2022-10-04T14:50:00.660Z,82.50
2022-10-04T14:52:49.630Z,82.40
2022-10-04T14:55:27.160Z,82.40
2022-10-04T14:58:32.502Z,83.10
2022-10-04T15:01:25.201Z,82.70
2022-10-04T15:04:04.618Z,82.90
2022-10-04T15:06:49.638Z,82.90
2022-10-04T15:09:25.952Z,83.00
2022-10-04T15:13:05.469Z,83.10
2022-10-04T15:15:12.023Z,83.70
2022-10-04T15:17:48.084Z,83.10
2022-10-04T15:20:24.856Z,83.10
2022-10-04T15:22:57.109Z,82.90
2022-10-04T15:25:44.013Z,82.60
2022-10-04T15:28:51.338Z,82.40
2022-10-04T15:31:24.374Z,82.40
2022-10-04T15:34:12.529Z,82.20
2022-10-04T15:37:06.540Z,82.20
2022-10-04T15:39:39.496Z,82.20
2022-10-04T15:42:23.044Z,82.10
2022-10-04T15:45:17.446Z,82.10
2022-10-04T15:47:56.594Z,82.10
2022-10-04T15:50:25.026Z,82.10
2022-10-04T15:53:49.365Z,82.30
2022-10-04T15:56:51.062Z,82.40
2022-10-04T15:59:39.228Z,82.30
2022-10-04T16:02:21.595Z,82.40
2022-10-04T16:05:18.077Z,82.40
2022-10-04T16:08:09.934Z,82.50
2022-10-04T16:10:57.042Z,82.60
2022-10-04T16:13:33.408Z,82.70
2022-10-04T16:16:15.478Z,82.80
2022-10-04T16:19:09.675Z,83.00
2022-10-04T16:21:54.712Z,83.10
2022-10-04T16:24:21.481Z,83.10
2022-10-04T16:26:50.933Z,83.30
2022-10-04T16:29:50.936Z,83.40
2022-10-04T16:32:41.647Z,83.70
2022-10-04T16:35:31.781Z,83.70
2022-10-04T16:38:16.887Z,84.00
2022-10-04T16:40:52.563Z,84.00
2022-10-04T16:43:19.330Z,84.10
2022-10-04T16:46:06.810Z,84.00
2022-10-04T16:48:52.520Z,84.20
2022-10-04T16:51:31.562Z,84.20
2022-10-04T16:54:04.834Z,84.20
2022-10-04T16:56:57.362Z,84.30
2022-10-04T16:59:43.106Z,84.30
2022-10-04T17:02:21.507Z,84.30
2022-10-04T17:05:07.836Z,84.40
2022-10-04T17:07:41.097Z,84.30
2022-10-04T17:10:35.208Z,84.20
2022-10-04T17:13:40.070Z,84.30
2022-10-04T17:16:14.918Z,84.30
2022-10-04T17:19:29.170Z,84.30
2022-10-04T17:22:06.846Z,84.40
2022-10-04T17:24:41.187Z,84.40
2022-10-04T17:27:45.471Z,84.60
2022-10-04T17:30:15.539Z,84.90
2022-10-04T17:33:06.250Z,84.90
2022-10-04T17:35:46.475Z,85.00
2022-10-04T17:38:36.071Z,85.30
2022-10-04T17:41:10.730Z,85.50
2022-10-04T17:43:56.030Z,85.70
2022-10-04T17:46:22.995Z,85.80
2022-10-04T17:49:37.665Z,85.90
2022-10-04T17:52:23.199Z,86.20
2022-10-04T17:55:24.597Z,86.10
2022-10-04T17:58:13.844Z,86.00
2022-10-04T18:01:07.843Z,86.10
2022-10-04T18:03:44.218Z,86.30
2022-10-04T18:06:29.698Z,86.00
2022-10-04T18:09:02.366Z,86.00
2022-10-04T18:11:56.895Z,86.10
2022-10-04T18:14:35.932Z,86.30
2022-10-04T18:17:07.006Z,86.30
2022-10-04T18:19:50.107Z,86.40
2022-10-04T18:22:21.097Z,86.60
2022-10-04T18:25:11.354Z,86.60
2022-10-04T18:28:10.624Z,86.70
2022-10-04T18:30:48.488Z,87.40
2022-10-04T18:33:16.608Z,86.70
2022-10-04T18:36:05.654Z,86.50
2022-10-04T18:38:34.506Z,86.60
2022-10-04T18:41:13.124Z,87.00
2022-10-04T18:44:00.225Z,86.50
2022-10-04T18:46:37.389Z,86.70
2022-10-04T18:49:25.571Z,86.70
2022-10-04T18:52:01.673Z,86.90
2022-10-04T18:54:48.394Z,86.90
2022-10-04T18:57:56.766Z,87.00
2022-10-04T19:00:42.026Z,87.00
2022-10-04T19:03:27.203Z,87.00
2022-10-04T19:06:16.316Z,87.20
2022-10-04T19:08:49.894Z,87.30
2022-10-04T19:11:23.422Z,87.30
2022-10-04T19:13:59.659Z,87.20
2022-10-04T19:16:43.350Z,87.20
2022-10-04T19:19:35.451Z,87.30
2022-10-04T19:22:46.670Z,87.40
2022-10-04T19:25:36.433Z,87.50
2022-10-04T19:28:13.324Z,87.60
2022-10-04T19:30:43.787Z,87.60
2022-10-04T19:33:26.491Z,87.70
2022-10-04T19:36:22.644Z,87.90
2022-10-04T19:39:12.645Z,88.00
2022-10-04T19:41:57.731Z,88.20
2022-10-04T19:44:52.160Z,88.20
2022-10-04T19:47:46.860Z,88.30
2022-10-04T19:50:17.794Z,88.30
2022-10-04T19:52:54.476Z,88.30
2022-10-04T19:55:32.339Z,88.30
2022-10-04T19:58:20.478Z,88.60
2022-10-04T20:00:48.636Z,88.60
2022-10-04T20:03:15.401Z,88.60
2022-10-04T20:05:47.368Z,88.70
2022-10-04T20:08:15.406Z,88.90
2022-10-04T20:10:43.208Z,88.90
2022-10-04T20:13:24.926Z,88.90
2022-10-04T20:15:59.863Z,89.10
2022-10-04T20:18:33.003Z,89.10
2022-10-04T20:21:03.462Z,89.20
2022-10-04T20:23:48.822Z,89.10
2022-10-04T20:27:08.584Z,89.10
2022-10-04T20:29:36.653Z,89.00
2022-10-04T20:32:04.181Z,88.80
2022-10-04T20:34:33.360Z,88.70
2022-10-04T20:37:00.202Z,88.70
2022-10-04T20:39:42.031Z,88.70
2022-10-04T20:42:25.113Z,88.70
2022-10-04T20:44:55.807Z,88.70
2022-10-04T20:47:49.009Z,88.60
2022-10-04T20:50:28.924Z,88.70
2022-10-04T20:52:58.413Z,88.60
2022-10-04T20:55:29.492Z,88.60
2022-10-04T20:58:15.351Z,88.60
2022-10-04T21:00:50.877Z,88.60
2022-10-04T21:03:17.955Z,88.60
2022-10-04T21:05:49.886Z,88.60
2022-10-04T21:08:24.400Z,88.60
2022-10-04T21:11:18.499Z,88.60
2022-10-04T21:13:52.475Z,88.60
2022-10-04T21:16:39.100Z,88.50
2022-10-04T21:19:40.123Z,88.50
2022-10-04T21:22:17.223Z,88.50
2022-10-04T21:24:50.221Z,88.70
2022-10-04T21:27:35.970Z,88.40
2022-10-04T21:30:13.619Z,88.00
2022-10-04T21:32:40.513Z,87.80
2022-10-04T21:35:08.302Z,87.50
2022-10-04T21:37:35.457Z,87.40
2022-10-04T21:40:02.929Z,87.40
2022-10-04T21:42:29.827Z,87.50
2022-10-04T21:44:56.629Z,87.50
2022-10-04T21:47:23.737Z,87.60
2022-10-04T21:49:51.883Z,87.60
2022-10-04T21:52:18.928Z,87.60
2022-10-04T21:54:46.037Z,87.70
2022-10-04T21:57:13.184Z,87.80
2022-10-04T21:59:40.043Z,87.80
2022-10-04T22:02:07.831Z,87.70
2022-10-04T22:04:34.961Z,87.70
2022-10-04T22:07:01.877Z,87.60
2022-10-04T22:09:29.158Z,88.10
2022-10-04T22:11:56.100Z,87.60
2022-10-04T22:14:22.936Z,87.60
2022-10-04T22:16:50.783Z,87.50
2022-10-04T22:19:17.982Z,87.40
2022-10-04T22:21:44.815Z,87.40
2022-10-04T22:24:19.931Z,87.40
2022-10-04T22:26:47.301Z,87.50
2022-10-04T22:29:15.728Z,87.40
2022-10-04T22:31:44.333Z,87.40
2022-10-04T22:34:19.400Z,87.50
2022-10-04T22:36:46.675Z,87.60
2022-10-04T22:39:15.562Z,87.60
2022-10-04T22:41:46.415Z,87.70
2022-10-04T22:44:26.798Z,87.60
2022-10-04T22:46:55.353Z,87.60
2022-10-04T22:49:35.235Z,87.60
2022-10-04T22:52:11.249Z,87.60
2022-10-04T22:54:38.082Z,87.60
2022-10-04T22:57:04.913Z,87.60
2022-10-04T22:59:35.227Z,87.60
2022-10-04T23:02:06.072Z,87.60
2022-10-04T23:04:33.045Z,87.50
2022-10-04T23:07:00.600Z,87.50
2022-10-04T23:09:27.572Z,87.40
2022-10-04T23:11:54.404Z,87.40
2022-10-04T23:14:21.271Z,87.30
2022-10-04T23:16:48.475Z,87.30
2022-10-04T23:19:18.730Z,87.30
2022-10-04T23:21:46.962Z,87.30
2022-10-04T23:24:17.338Z,87.30
2022-10-04T23:26:46.214Z,87.30
2022-10-04T23:29:25.618Z,87.30
2022-10-04T23:31:52.799Z,87.30
2022-10-04T23:34:23.957Z,87.30
2022-10-04T23:36:50.805Z,87.30
2022-10-04T23:39:25.065Z,87.30
2022-10-04T23:41:53.909Z,87.40
2022-10-04T23:44:24.420Z,87.40
2022-10-04T23:46:51.704Z,87.30
2022-10-04T23:49:18.850Z,87.30
2022-10-04T23:51:45.718Z,87.30
2022-10-04T23:54:17.028Z,87.10
2022-10-04T23:56:44.567Z,87.00
2022-10-04T23:59:17.277Z,87.00
